Emine Anne — TCBX9 — position and weather

sailwx.info

Track history (hours):
 
Tides and Currents Weather Stations Pressure Air Temp Water Temp Dewpoint Dewpoint Depression Visibility Wind Speed Wind Dir Waves Ship Positions

Emine Anne

Last reported at 2015-Aug-25 09:20 UTC. Time now 2015-Aug-27 21:29 UTC.
Position N 41°26' E 019°08'.

Length 69 m; draft 4.4 m.

Type: Cargo ship. MMSI: 271002305.

Date/timePositionNaut miles runAvg speedWind from/ knotsBaromVisibWave heightAir tempDewpointWater temp
2015-Aug-25 09:20N 41°26' E 019°08'  
2015-Aug-22 17:05N 37°48' E 023°12'5 8.8
2015-Aug-22 16:32N 37°44' E 023°14'8 8.1
2015-Aug-22 15:33N 37°40' E 023°22'9 8.8
2015-Aug-22 14:33N 37°40' E 023°34'9 8.7
2015-Aug-22 13:33N 37°39' E 023°44'313 7.6
2015-Aug-20 20:16N 40°59' E 028°56'0 0.0
2015-Aug-20 18:07N 40°59' E 028°56'0 0.0
2015-Aug-20 15:23N 40°59' E 028°56'0 0.0
2015-Aug-20 14:05N 40°59' E 028°56'10 5.8
2015-Aug-20 12:22N 40°51' E 029°04'5 6.6
2015-Aug-20 11:33N 40°52' E 029°11'0 0.4
2015-Aug-20 10:21N 40°53' E 029°12'0 0.0
2015-Aug-20 09:29N 40°53' E 029°12'9 0.4
2015-Aug-19 12:24N 40°51' E 029°01'8 7.7
2015-Aug-19 11:22N 40°58' E 028°58'  
Track history (hours):
 
Tides and Currents Weather Stations Pressure Air Temp Water Temp Dewpoint Dewpoint Depression Visibility Wind Speed Wind Dir Waves Ship Positions

Emine Anne

Last reported at 2015-Aug-25 09:20 UTC. Time now 2015-Aug-27 21:29 UTC.
Position N 41°26' E 019°08'.

Length 69 m; draft 4.4 m.

Type: Cargo ship. MMSI: 271002305.

Date/timePositionNaut miles runAvg speedWind from/ knotsBaromVisibWave heightAir tempDewpointWater temp
2015-Aug-25 09:20N 41°26' E 019°08'  
2015-Aug-22 17:05N 37°48' E 023°12'5 8.8
2015-Aug-22 16:32N 37°44' E 023°14'8 8.1
2015-Aug-22 15:33N 37°40' E 023°22'9 8.8
2015-Aug-22 14:33N 37°40' E 023°34'9 8.7
2015-Aug-22 13:33N 37°39' E 023°44'313 7.6
2015-Aug-20 20:16N 40°59' E 028°56'0 0.0
2015-Aug-20 18:07N 40°59' E 028°56'0 0.0
2015-Aug-20 15:23N 40°59' E 028°56'0 0.0
2015-Aug-20 14:05N 40°59' E 028°56'10 5.8
2015-Aug-20 12:22N 40°51' E 029°04'5 6.6
2015-Aug-20 11:33N 40°52' E 029°11'0 0.4
2015-Aug-20 10:21N 40°53' E 029°12'0 0.0
2015-Aug-20 09:29N 40°53' E 029°12'9 0.4
2015-Aug-19 12:24N 40°51' E 029°01'8 7.7
2015-Aug-19 11:22N 40°58' E 028°58'  

Dump ship's entire track history